Mogoca, Russia
Current Conditions -  °F | °C
As of 10:30 AM on Wednesday 22 Oct 2014 (Local Time) from UIAA Reporting Station
Broken Clouds Broken Clouds  
Wind Chill: 18°   Ceiling: 20000
Heat Index: 18°   Visibility: 6mi
Dew Point: 10°   Wind: 0mph
Humidity: 73%   Direction: NA
Pressure: 29.85"   Gusts: NA
Location:  53.75°N, 119.73°E
Report Text: UIAA 220130Z 00000MPS 9999 SCT100 BKN200 M08/M12 Q1011 NOSIGRMK QFE700 29CLRD70
Loading
Personal Weather Stations






























Interactive Weather Map
Tropical Storm Tracking
New forecast layout! Learn more

10-Day Weather Forecast

Advertisements
Track Severe Weather on mobile